sensor_id;sensor_type;location;lat;lon;timestamp;temperature;humidity
16814;DHT22;8524;57.650;11.926;2024-01-10T00:00:15;-0.90;99.90
16814;DHT22;8524;57.650;11.926;2024-01-10T00:02:42;-0.90;99.90
16814;DHT22;8524;57.650;11.926;2024-01-10T00:05:08;-0.90;99.90
16814;DHT22;8524;57.650;11.926;2024-01-10T00:07:35;-0.90;99.90
16814;DHT22;8524;57.650;11.926;2024-01-10T00:10:05;-0.90;99.90
16814;DHT22;8524;57.650;11.926;2024-01-10T00:12:32;-0.90;99.90
16814;DHT22;8524;57.650;11.926;2024-01-10T00:15:02;-0.80;99.90
16814;DHT22;8524;57.650;11.926;2024-01-10T00:17:29;-0.90;99.90
16814;DHT22;8524;57.650;11.926;2024-01-10T00:19:56;-0.90;99.90
16814;DHT22;8524;57.650;11.926;2024-01-10T00:22:23;-0.80;99.90
16814;DHT22;8524;57.650;11.926;2024-01-10T00:24:49;-0.90;99.90
16814;DHT22;8524;57.650;11.926;2024-01-10T00:27:18;-0.90;99.90
16814;DHT22;8524;57.650;11.926;2024-01-10T00:29:44;-1.00;99.90
16814;DHT22;8524;57.650;11.926;2024-01-10T00:32:11;-1.00;99.90
16814;DHT22;8524;57.650;11.926;2024-01-10T00:34:38;-0.90;99.90
16814;DHT22;8524;57.650;11.926;2024-01-10T00:37:05;-1.00;99.90
16814;DHT22;8524;57.650;11.926;2024-01-10T00:39:32;-1.00;99.90
16814;DHT22;8524;57.650;11.926;2024-01-10T00:41:58;-1.00;99.90
16814;DHT22;8524;57.650;11.926;2024-01-10T00:44:27;-1.00;99.90
16814;DHT22;8524;57.650;11.926;2024-01-10T00:46:53;-1.00;99.90
16814;DHT22;8524;57.650;11.926;2024-01-10T00:49:20;-1.00;99.90
16814;DHT22;8524;57.650;11.926;2024-01-10T00:51:47;-0.90;99.90
16814;DHT22;8524;57.650;11.926;2024-01-10T00:54:14;-0.90;99.90
16814;DHT22;8524;57.650;11.926;2024-01-10T00:56:41;-0.90;99.90
16814;DHT22;8524;57.650;11.926;2024-01-10T00:59:07;-0.90;99.90
16814;DHT22;8524;57.650;11.926;2024-01-10T01:01:36;-0.90;99.90
16814;DHT22;8524;57.650;11.926;2024-01-10T01:04:03;-0.90;99.90
16814;DHT22;8524;57.650;11.926;2024-01-10T01:06:30;-1.00;99.90
16814;DHT22;8524;57.650;11.926;2024-01-10T01:08:56;-1.10;99.90
16814;DHT22;8524;57.650;11.926;2024-01-10T01:11:24;-1.10;99.90
16814;DHT22;8524;57.650;11.926;2024-01-10T01:13:51;-1.20;99.90
16814;DHT22;8524;57.650;11.926;2024-01-10T01:16:17;-1.30;99.90
16814;DHT22;8524;57.650;11.926;2024-01-10T01:18:46;-1.30;99.90
16814;DHT22;8524;57.650;11.926;2024-01-10T01:21:12;-1.30;99.90
16814;DHT22;8524;57.650;11.926;2024-01-10T01:23:39;-1.30;99.90
16814;DHT22;8524;57.650;11.926;2024-01-10T01:26:06;-1.40;99.90
16814;DHT22;8524;57.650;11.926;2024-01-10T01:28:33;-1.40;99.90
16814;DHT22;8524;57.650;11.926;2024-01-10T01:31:00;-1.50;99.90
16814;DHT22;8524;57.650;11.926;2024-01-10T01:33:27;-1.50;99.90
16814;DHT22;8524;57.650;11.926;2024-01-10T01:35:55;-1.40;99.90
16814;DHT22;8524;57.650;11.926;2024-01-10T01:38:22;-1.40;99.90
16814;DHT22;8524;57.650;11.926;2024-01-10T01:40:49;-1.40;99.90
16814;DHT22;8524;57.650;11.926;2024-01-10T01:43:20;-1.40;99.90
16814;DHT22;8524;57.650;11.926;2024-01-10T01:45:48;-1.40;99.90
16814;DHT22;8524;57.650;11.926;2024-01-10T01:48:17;-1.40;99.90
16814;DHT22;8524;57.650;11.926;2024-01-10T01:50:44;-1.50;99.90
16814;DHT22;8524;57.650;11.926;2024-01-10T01:53:13;-1.50;99.90
16814;DHT22;8524;57.650;11.926;2024-01-10T01:55:42;-1.40;99.90
16814;DHT22;8524;57.650;11.926;2024-01-10T01:58:09;-1.30;99.90
16814;DHT22;8524;57.650;11.926;2024-01-10T02:00:37;-1.30;99.90
16814;DHT22;8524;57.650;11.926;2024-01-10T02:03:05;-1.30;99.90
16814;DHT22;8524;57.650;11.926;2024-01-10T02:05:32;-1.30;99.90
16814;DHT22;8524;57.650;11.926;2024-01-10T02:07:59;-1.40;99.90
16814;DHT22;8524;57.650;11.926;2024-01-10T02:10:27;-1.50;99.90
16814;DHT22;8524;57.650;11.926;2024-01-10T02:12:54;-1.50;99.90
16814;DHT22;8524;57.650;11.926;2024-01-10T02:15:21;-1.50;99.90
16814;DHT22;8524;57.650;11.926;2024-01-10T02:17:48;-1.50;99.90
16814;DHT22;8524;57.650;11.926;2024-01-10T02:20:16;-1.40;99.90
16814;DHT22;8524;57.650;11.926;2024-01-10T02:22:43;-1.40;99.90
16814;DHT22;8524;57.650;11.926;2024-01-10T02:25:12;-1.40;99.90
16814;DHT22;8524;57.650;11.926;2024-01-10T02:27:40;-1.40;99.90
16814;DHT22;8524;57.650;11.926;2024-01-10T02:30:08;-1.40;99.90
16814;DHT22;8524;57.650;11.926;2024-01-10T02:32:36;-1.40;99.90
16814;DHT22;8524;57.650;11.926;2024-01-10T02:35:04;-1.40;99.90
16814;DHT22;8524;57.650;11.926;2024-01-10T02:37:31;-1.40;99.90
16814;DHT22;8524;57.650;11.926;2024-01-10T02:39:58;-1.40;99.90
16814;DHT22;8524;57.650;11.926;2024-01-10T02:42:26;-1.40;99.90
16814;DHT22;8524;57.650;11.926;2024-01-10T02:44:53;-1.40;99.90
16814;DHT22;8524;57.650;11.926;2024-01-10T02:47:20;-1.40;99.90
16814;DHT22;8524;57.650;11.926;2024-01-10T02:49:47;-1.40;99.90
16814;DHT22;8524;57.650;11.926;2024-01-10T02:52:14;-1.40;99.90
16814;DHT22;8524;57.650;11.926;2024-01-10T02:54:41;-1.40;99.90
16814;DHT22;8524;57.650;11.926;2024-01-10T02:57:08;-1.40;99.90
16814;DHT22;8524;57.650;11.926;2024-01-10T02:59:36;-1.50;99.90
16814;DHT22;8524;57.650;11.926;2024-01-10T03:02:03;-1.50;99.90
16814;DHT22;8524;57.650;11.926;2024-01-10T03:04:30;-1.50;99.90
16814;DHT22;8524;57.650;11.926;2024-01-10T03:06:57;-1.50;99.90
16814;DHT22;8524;57.650;11.926;2024-01-10T03:09:23;-1.40;99.90
16814;DHT22;8524;57.650;11.926;2024-01-10T03:11:50;-1.50;99.90
16814;DHT22;8524;57.650;11.926;2024-01-10T03:14:17;-1.60;99.90
16814;DHT22;8524;57.650;11.926;2024-01-10T03:16:45;-1.70;99.90
16814;DHT22;8524;57.650;11.926;2024-01-10T03:19:12;-1.70;99.90
16814;DHT22;8524;57.650;11.926;2024-01-10T03:21:39;-1.60;99.90
16814;DHT22;8524;57.650;11.926;2024-01-10T03:24:07;-1.60;99.90
16814;DHT22;8524;57.650;11.926;2024-01-10T03:26:34;-1.70;99.90
16814;DHT22;8524;57.650;11.926;2024-01-10T03:29:01;-1.70;99.90
16814;DHT22;8524;57.650;11.926;2024-01-10T03:31:28;-1.70;99.90
16814;DHT22;8524;57.650;11.926;2024-01-10T03:33:57;-1.80;99.90
16814;DHT22;8524;57.650;11.926;2024-01-10T03:36:24;-1.80;99.90
16814;DHT22;8524;57.650;11.926;2024-01-10T03:38:51;-1.80;99.90
16814;DHT22;8524;57.650;11.926;2024-01-10T03:41:19;-1.80;99.90
16814;DHT22;8524;57.650;11.926;2024-01-10T03:43:46;-1.90;99.90
16814;DHT22;8524;57.650;11.926;2024-01-10T03:46:13;-1.90;99.90
16814;DHT22;8524;57.650;11.926;2024-01-10T03:48:40;-2.10;99.90
16814;DHT22;8524;57.650;11.926;2024-01-10T03:51:14;-2.00;99.90
16814;DHT22;8524;57.650;11.926;2024-01-10T03:53:41;-2.00;99.90
16814;DHT22;8524;57.650;11.926;2024-01-10T03:56:08;-2.10;99.90
16814;DHT22;8524;57.650;11.926;2024-01-10T03:58:35;-2.00;99.90
16814;DHT22;8524;57.650;11.926;2024-01-10T04:01:04;-2.00;99.90
16814;DHT22;8524;57.650;11.926;2024-01-10T04:03:32;-1.90;99.90
16814;DHT22;8524;57.650;11.926;2024-01-10T04:06:00;-2.00;99.90
16814;DHT22;8524;57.650;11.926;2024-01-10T04:08:28;-1.90;99.90
16814;DHT22;8524;57.650;11.926;2024-01-10T04:10:55;-1.90;99.90
16814;DHT22;8524;57.650;11.926;2024-01-10T04:13:23;-2.00;99.90
16814;DHT22;8524;57.650;11.926;2024-01-10T04:15:50;-2.10;99.90
16814;DHT22;8524;57.650;11.926;2024-01-10T04:18:17;-2.00;99.90
16814;DHT22;8524;57.650;11.926;2024-01-10T04:20:43;-2.00;99.90
16814;DHT22;8524;57.650;11.926;2024-01-10T04:23:10;-2.00;99.90
16814;DHT22;8524;57.650;11.926;2024-01-10T04:25:39;-2.00;99.90
16814;DHT22;8524;57.650;11.926;2024-01-10T04:28:06;-2.00;99.90
16814;DHT22;8524;57.650;11.926;2024-01-10T04:30:32;-2.00;99.90
16814;DHT22;8524;57.650;11.926;2024-01-10T04:32:59;-1.90;99.90
16814;DHT22;8524;57.650;11.926;2024-01-10T04:35:28;-1.90;99.90
16814;DHT22;8524;57.650;11.926;2024-01-10T04:37:55;-1.80;99.90
16814;DHT22;8524;57.650;11.926;2024-01-10T04:40:21;-1.80;99.90
16814;DHT22;8524;57.650;11.926;2024-01-10T04:42:50;-1.90;99.90
16814;DHT22;8524;57.650;11.926;2024-01-10T04:45:18;-1.90;99.90
16814;DHT22;8524;57.650;11.926;2024-01-10T04:47:45;-1.90;99.90
16814;DHT22;8524;57.650;11.926;2024-01-10T04:50:12;-1.90;99.90
16814;DHT22;8524;57.650;11.926;2024-01-10T04:52:39;-1.80;99.90
16814;DHT22;8524;57.650;11.926;2024-01-10T04:55:06;-1.80;99.90
16814;DHT22;8524;57.650;11.926;2024-01-10T04:57:33;-1.80;99.90
16814;DHT22;8524;57.650;11.926;2024-01-10T05:00:02;-1.80;99.90
16814;DHT22;8524;57.650;11.926;2024-01-10T05:02:30;-1.70;99.90
16814;DHT22;8524;57.650;11.926;2024-01-10T05:04:58;-1.70;99.90
16814;DHT22;8524;57.650;11.926;2024-01-10T05:07:25;-1.70;99.90
16814;DHT22;8524;57.650;11.926;2024-01-10T05:09:52;-1.70;99.90
16814;DHT22;8524;57.650;11.926;2024-01-10T05:12:18;-1.70;99.90
16814;DHT22;8524;57.650;11.926;2024-01-10T05:14:45;-1.70;99.90
16814;DHT22;8524;57.650;11.926;2024-01-10T05:17:13;-1.60;99.90
16814;DHT22;8524;57.650;11.926;2024-01-10T05:19:40;-1.60;99.90
16814;DHT22;8524;57.650;11.926;2024-01-10T05:22:07;-1.60;99.90
16814;DHT22;8524;57.650;11.926;2024-01-10T05:24:34;-1.50;99.90
16814;DHT22;8524;57.650;11.926;2024-01-10T05:27:02;-1.50;99.90
16814;DHT22;8524;57.650;11.926;2024-01-10T05:29:28;-1.50;99.90
16814;DHT22;8524;57.650;11.926;2024-01-10T05:31:55;-1.50;99.90
16814;DHT22;8524;57.650;11.926;2024-01-10T05:34:23;-1.50;99.90
16814;DHT22;8524;57.650;11.926;2024-01-10T05:36:50;-1.50;99.90
16814;DHT22;8524;57.650;11.926;2024-01-10T05:39:17;-1.40;99.90
16814;DHT22;8524;57.650;11.926;2024-01-10T05:41:46;-1.40;99.90
16814;DHT22;8524;57.650;11.926;2024-01-10T05:44:12;-1.40;99.90
16814;DHT22;8524;57.650;11.926;2024-01-10T05:46:40;-1.40;99.90
16814;DHT22;8524;57.650;11.926;2024-01-10T05:49:09;-1.40;99.90
16814;DHT22;8524;57.650;11.926;2024-01-10T05:51:37;-1.40;99.90
16814;DHT22;8524;57.650;11.926;2024-01-10T05:54:04;-1.40;99.90
16814;DHT22;8524;57.650;11.926;2024-01-10T05:56:32;-1.40;99.90
16814;DHT22;8524;57.650;11.926;2024-01-10T05:58:59;-1.40;99.90
16814;DHT22;8524;57.650;11.926;2024-01-10T06:01:26;-1.30;99.90
16814;DHT22;8524;57.650;11.926;2024-01-10T06:03:54;-1.20;99.90
16814;DHT22;8524;57.650;11.926;2024-01-10T06:06:22;-1.30;99.90
16814;DHT22;8524;57.650;11.926;2024-01-10T06:08:50;-1.30;99.90
16814;DHT22;8524;57.650;11.926;2024-01-10T06:11:18;-1.30;99.90
16814;DHT22;8524;57.650;11.926;2024-01-10T06:13:45;-1.30;99.90
16814;DHT22;8524;57.650;11.926;2024-01-10T06:16:11;-1.20;99.90
16814;DHT22;8524;57.650;11.926;2024-01-10T06:18:39;-1.20;99.90
16814;DHT22;8524;57.650;11.926;2024-01-10T06:21:06;-1.10;99.90
16814;DHT22;8524;57.650;11.926;2024-01-10T06:23:33;-1.10;99.90
16814;DHT22;8524;57.650;11.926;2024-01-10T06:26:01;-1.10;99.90
16814;DHT22;8524;57.650;11.926;2024-01-10T06:28:29;-1.10;99.90
16814;DHT22;8524;57.650;11.926;2024-01-10T06:30:56;-1.00;99.90
16814;DHT22;8524;57.650;11.926;2024-01-10T06:33:22;-1.00;99.90
16814;DHT22;8524;57.650;11.926;2024-01-10T06:35:49;-1.00;99.90
16814;DHT22;8524;57.650;11.926;2024-01-10T06:38:16;-1.00;99.90
16814;DHT22;8524;57.650;11.926;2024-01-10T06:40:45;-0.90;99.90
16814;DHT22;8524;57.650;11.926;2024-01-10T06:43:14;-0.90;99.90
16814;DHT22;8524;57.650;11.926;2024-01-10T06:45:41;-0.80;99.90
16814;DHT22;8524;57.650;11.926;2024-01-10T06:48:09;-0.80;99.90
16814;DHT22;8524;57.650;11.926;2024-01-10T06:50:36;-0.80;99.90
16814;DHT22;8524;57.650;11.926;2024-01-10T06:53:03;-0.80;99.90
16814;DHT22;8524;57.650;11.926;2024-01-10T06:55:30;-0.80;99.90
16814;DHT22;8524;57.650;11.926;2024-01-10T06:57:57;-0.80;99.90
16814;DHT22;8524;57.650;11.926;2024-01-10T07:00:25;-0.80;99.90
16814;DHT22;8524;57.650;11.926;2024-01-10T07:02:52;-0.80;99.90
16814;DHT22;8524;57.650;11.926;2024-01-10T07:05:19;-0.80;99.90
16814;DHT22;8524;57.650;11.926;2024-01-10T07:07:46;-0.70;99.90
16814;DHT22;8524;57.650;11.926;2024-01-10T07:10:15;-0.70;99.90
16814;DHT22;8524;57.650;11.926;2024-01-10T07:12:42;-0.70;99.90
16814;DHT22;8524;57.650;11.926;2024-01-10T07:15:09;-0.60;99.90
16814;DHT22;8524;57.650;11.926;2024-01-10T07:17:38;-0.60;99.90
16814;DHT22;8524;57.650;11.926;2024-01-10T07:20:05;-0.50;99.90
16814;DHT22;8524;57.650;11.926;2024-01-10T07:22:34;-0.50;99.90
16814;DHT22;8524;57.650;11.926;2024-01-10T07:25:01;-0.40;99.90
16814;DHT22;8524;57.650;11.926;2024-01-10T07:27:28;-0.40;99.90
16814;DHT22;8524;57.650;11.926;2024-01-10T07:29:55;-0.40;99.90
16814;DHT22;8524;57.650;11.926;2024-01-10T07:32:23;-0.50;99.90
16814;DHT22;8524;57.650;11.926;2024-01-10T07:34:51;-0.50;99.90
16814;DHT22;8524;57.650;11.926;2024-01-10T07:37:18;-0.50;99.90
16814;DHT22;8524;57.650;11.926;2024-01-10T07:39:46;-0.40;99.90
16814;DHT22;8524;57.650;11.926;2024-01-10T07:42:13;-0.50;99.90
16814;DHT22;8524;57.650;11.926;2024-01-10T07:44:40;-0.50;99.90
16814;DHT22;8524;57.650;11.926;2024-01-10T07:47:07;-0.40;99.90
16814;DHT22;8524;57.650;11.926;2024-01-10T07:49:34;-0.30;99.90
16814;DHT22;8524;57.650;11.926;2024-01-10T07:52:03;-0.30;99.90
16814;DHT22;8524;57.650;11.926;2024-01-10T07:54:30;-0.30;99.90
16814;DHT22;8524;57.650;11.926;2024-01-10T07:56:58;-0.30;99.90
16814;DHT22;8524;57.650;11.926;2024-01-10T07:59:24;-0.30;99.90
16814;DHT22;8524;57.650;11.926;2024-01-10T08:01:55;-0.30;99.90
16814;DHT22;8524;57.650;11.926;2024-01-10T08:04:24;-0.30;99.90
16814;DHT22;8524;57.650;11.926;2024-01-10T08:06:51;-0.30;99.90
16814;DHT22;8524;57.650;11.926;2024-01-10T08:09:19;-0.30;99.90
16814;DHT22;8524;57.650;11.926;2024-01-10T08:11:46;-0.20;99.90
16814;DHT22;8524;57.650;11.926;2024-01-10T08:14:14;-0.10;99.90
16814;DHT22;8524;57.650;11.926;2024-01-10T08:16:41;-0.10;99.90
16814;DHT22;8524;57.650;11.926;2024-01-10T08:19:10;-0.10;99.90
16814;DHT22;8524;57.650;11.926;2024-01-10T08:21:37;-0.10;99.90
16814;DHT22;8524;57.650;11.926;2024-01-10T08:24:05;0.00;99.90
16814;DHT22;8524;57.650;11.926;2024-01-10T08:26:33;0.00;99.90
16814;DHT22;8524;57.650;11.926;2024-01-10T08:29:00;0.00;99.90
16814;DHT22;8524;57.650;11.926;2024-01-10T08:31:27;0.00;99.90
16814;DHT22;8524;57.650;11.926;2024-01-10T08:33:54;0.10;99.90
16814;DHT22;8524;57.650;11.926;2024-01-10T08:36:22;0.10;99.90
16814;DHT22;8524;57.650;11.926;2024-01-10T08:38:49;0.00;99.90
16814;DHT22;8524;57.650;11.926;2024-01-10T08:41:17;0.00;99.90
16814;DHT22;8524;57.650;11.926;2024-01-10T08:43:44;0.00;99.90
16814;DHT22;8524;57.650;11.926;2024-01-10T08:46:11;0.10;99.90
16814;DHT22;8524;57.650;11.926;2024-01-10T08:48:38;0.10;99.90
16814;DHT22;8524;57.650;11.926;2024-01-10T08:51:05;0.10;99.90
16814;DHT22;8524;57.650;11.926;2024-01-10T08:53:32;0.10;99.90
16814;DHT22;8524;57.650;11.926;2024-01-10T08:55:58;0.10;99.90
16814;DHT22;8524;57.650;11.926;2024-01-10T08:58:25;0.20;99.90
16814;DHT22;8524;57.650;11.926;2024-01-10T09:00:54;0.20;99.90
16814;DHT22;8524;57.650;11.926;2024-01-10T09:03:21;0.30;99.90
16814;DHT22;8524;57.650;11.926;2024-01-10T09:05:49;0.20;99.90
16814;DHT22;8524;57.650;11.926;2024-01-10T09:08:16;0.30;99.90
16814;DHT22;8524;57.650;11.926;2024-01-10T09:10:43;0.30;99.90
16814;DHT22;8524;57.650;11.926;2024-01-10T09:13:09;0.30;99.90
16814;DHT22;8524;57.650;11.926;2024-01-10T09:15:36;0.20;99.90
16814;DHT22;8524;57.650;11.926;2024-01-10T09:18:05;0.20;99.90
16814;DHT22;8524;57.650;11.926;2024-01-10T09:20:32;0.20;99.90
16814;DHT22;8524;57.650;11.926;2024-01-10T09:22:59;0.10;99.90
16814;DHT22;8524;57.650;11.926;2024-01-10T09:25:26;0.20;99.90
16814;DHT22;8524;57.650;11.926;2024-01-10T09:27:53;0.30;99.90
16814;DHT22;8524;57.650;11.926;2024-01-10T09:30:20;0.30;99.90
16814;DHT22;8524;57.650;11.926;2024-01-10T09:32:47;0.30;99.90
16814;DHT22;8524;57.650;11.926;2024-01-10T09:35:15;0.30;99.90
16814;DHT22;8524;57.650;11.926;2024-01-10T09:37:43;0.20;99.90
16814;DHT22;8524;57.650;11.926;2024-01-10T09:40:14;0.10;99.90
16814;DHT22;8524;57.650;11.926;2024-01-10T09:42:41;0.20;99.90
16814;DHT22;8524;57.650;11.926;2024-01-10T09:45:10;0.10;99.90
16814;DHT22;8524;57.650;11.926;2024-01-10T09:47:39;0.10;99.90
16814;DHT22;8524;57.650;11.926;2024-01-10T09:50:08;0.10;99.90
16814;DHT22;8524;57.650;11.926;2024-01-10T09:52:41;0.10;99.90
16814;DHT22;8524;57.650;11.926;2024-01-10T09:55:10;0.20;99.90
16814;DHT22;8524;57.650;11.926;2024-01-10T09:57:39;0.30;99.90
16814;DHT22;8524;57.650;11.926;2024-01-10T10:00:09;0.40;99.90
16814;DHT22;8524;57.650;11.926;2024-01-10T10:02:38;0.30;99.90
16814;DHT22;8524;57.650;11.926;2024-01-10T10:05:08;0.30;99.90
16814;DHT22;8524;57.650;11.926;2024-01-10T10:07:45;0.30;99.90
16814;DHT22;8524;57.650;11.926;2024-01-10T10:10:12;0.30;99.90
16814;DHT22;8524;57.650;11.926;2024-01-10T10:12:44;0.20;99.90
16814;DHT22;8524;57.650;11.926;2024-01-10T10:15:12;0.20;99.90
16814;DHT22;8524;57.650;11.926;2024-01-10T10:17:40;0.20;99.90
16814;DHT22;8524;57.650;11.926;2024-01-10T10:20:13;0.30;99.90
16814;DHT22;8524;57.650;11.926;2024-01-10T10:22:57;0.20;99.90
16814;DHT22;8524;57.650;11.926;2024-01-10T10:25:26;0.00;99.90
16814;DHT22;8524;57.650;11.926;2024-01-10T10:27:53;-0.10;99.90
16814;DHT22;8524;57.650;11.926;2024-01-10T10:30:20;-0.20;99.90
16814;DHT22;8524;57.650;11.926;2024-01-10T10:32:48;-0.20;99.90
16814;DHT22;8524;57.650;11.926;2024-01-10T10:35:15;-0.10;99.90
16814;DHT22;8524;57.650;11.926;2024-01-10T10:37:42;0.10;99.90
16814;DHT22;8524;57.650;11.926;2024-01-10T10:40:11;0.30;99.90
16814;DHT22;8524;57.650;11.926;2024-01-10T10:42:43;0.40;99.90
16814;DHT22;8524;57.650;11.926;2024-01-10T10:45:14;0.60;99.90
16814;DHT22;8524;57.650;11.926;2024-01-10T10:47:43;0.70;99.90
16814;DHT22;8524;57.650;11.926;2024-01-10T10:50:13;0.60;99.90
16814;DHT22;8524;57.650;11.926;2024-01-10T10:52:44;0.50;99.90
16814;DHT22;8524;57.650;11.926;2024-01-10T10:55:15;0.60;99.90
16814;DHT22;8524;57.650;11.926;2024-01-10T10:57:44;0.60;99.90
16814;DHT22;8524;57.650;11.926;2024-01-10T11:00:13;0.60;99.90
16814;DHT22;8524;57.650;11.926;2024-01-10T11:02:42;0.60;99.90
16814;DHT22;8524;57.650;11.926;2024-01-10T11:05:09;0.60;99.90
16814;DHT22;8524;57.650;11.926;2024-01-10T11:07:37;0.50;99.90
16814;DHT22;8524;57.650;11.926;2024-01-10T11:10:08;0.60;99.90
16814;DHT22;8524;57.650;11.926;2024-01-10T11:13:00;0.70;99.90
16814;DHT22;8524;57.650;11.926;2024-01-10T11:15:43;0.80;99.90
16814;DHT22;8524;57.650;11.926;2024-01-10T11:18:35;0.80;99.90
16814;DHT22;8524;57.650;11.926;2024-01-10T11:21:18;0.90;99.90
16814;DHT22;8524;57.650;11.926;2024-01-10T11:23:51;1.00;99.90
16814;DHT22;8524;57.650;11.926;2024-01-10T11:26:19;1.00;99.90
16814;DHT22;8524;57.650;11.926;2024-01-10T11:28:48;1.00;99.90
16814;DHT22;8524;57.650;11.926;2024-01-10T11:31:15;1.10;99.90
16814;DHT22;8524;57.650;11.926;2024-01-10T11:33:42;1.20;99.90
16814;DHT22;8524;57.650;11.926;2024-01-10T11:36:13;1.10;99.90
16814;DHT22;8524;57.650;11.926;2024-01-10T11:38:53;1.20;99.90
16814;DHT22;8524;57.650;11.926;2024-01-10T11:41:22;1.10;99.90
16814;DHT22;8524;57.650;11.926;2024-01-10T11:44:26;1.10;99.90
16814;DHT22;8524;57.650;11.926;2024-01-10T11:46:54;1.20;99.90
16814;DHT22;8524;57.650;11.926;2024-01-10T11:49:22;1.20;99.90
16814;DHT22;8524;57.650;11.926;2024-01-10T11:51:52;1.20;99.90
16814;DHT22;8524;57.650;11.926;2024-01-10T11:54:39;1.30;99.90
16814;DHT22;8524;57.650;11.926;2024-01-10T11:57:14;1.30;99.90
16814;DHT22;8524;57.650;11.926;2024-01-10T11:59:44;1.40;99.90
16814;DHT22;8524;57.650;11.926;2024-01-10T12:02:12;1.30;99.90
16814;DHT22;8524;57.650;11.926;2024-01-10T12:04:39;1.40;99.90
16814;DHT22;8524;57.650;11.926;2024-01-10T12:07:07;1.30;99.90
16814;DHT22;8524;57.650;11.926;2024-01-10T12:09:34;1.20;99.90
16814;DHT22;8524;57.650;11.926;2024-01-10T12:12:06;1.30;99.90
16814;DHT22;8524;57.650;11.926;2024-01-10T12:14:34;1.30;99.90
16814;DHT22;8524;57.650;11.926;2024-01-10T12:17:05;1.30;99.90
16814;DHT22;8524;57.650;11.926;2024-01-10T12:19:33;1.20;99.90
16814;DHT22;8524;57.650;11.926;2024-01-10T12:22:00;1.30;99.90
16814;DHT22;8524;57.650;11.926;2024-01-10T12:24:27;1.30;99.90
16814;DHT22;8524;57.650;11.926;2024-01-10T12:26:55;1.20;99.90
16814;DHT22;8524;57.650;11.926;2024-01-10T12:29:22;1.30;99.90
16814;DHT22;8524;57.650;11.926;2024-01-10T12:31:50;1.40;99.90
16814;DHT22;8524;57.650;11.926;2024-01-10T12:34:19;1.30;99.90
16814;DHT22;8524;57.650;11.926;2024-01-10T12:36:47;1.20;99.90
16814;DHT22;8524;57.650;11.926;2024-01-10T12:39:14;1.20;99.90
16814;DHT22;8524;57.650;11.926;2024-01-10T12:41:42;1.10;99.90
16814;DHT22;8524;57.650;11.926;2024-01-10T12:44:10;0.90;99.90
16814;DHT22;8524;57.650;11.926;2024-01-10T12:46:49;0.90;99.90
16814;DHT22;8524;57.650;11.926;2024-01-10T12:49:18;0.90;99.90
16814;DHT22;8524;57.650;11.926;2024-01-10T12:51:47;0.80;99.90
16814;DHT22;8524;57.650;11.926;2024-01-10T12:54:14;0.90;99.90
16814;DHT22;8524;57.650;11.926;2024-01-10T12:56:42;0.90;99.90
16814;DHT22;8524;57.650;11.926;2024-01-10T12:59:09;0.70;99.90
16814;DHT22;8524;57.650;11.926;2024-01-10T13:01:37;0.70;99.90
16814;DHT22;8524;57.650;11.926;2024-01-10T13:04:04;0.60;99.90
16814;DHT22;8524;57.650;11.926;2024-01-10T13:06:33;0.80;99.90
16814;DHT22;8524;57.650;11.926;2024-01-10T13:09:00;0.70;99.90
16814;DHT22;8524;57.650;11.926;2024-01-10T13:11:26;0.70;99.90
16814;DHT22;8524;57.650;11.926;2024-01-10T13:13:55;0.70;99.90
16814;DHT22;8524;57.650;11.926;2024-01-10T13:16:22;0.70;99.90
16814;DHT22;8524;57.650;11.926;2024-01-10T13:18:49;0.50;99.90
16814;DHT22;8524;57.650;11.926;2024-01-10T13:21:19;0.40;99.90
16814;DHT22;8524;57.650;11.926;2024-01-10T13:23:47;0.40;99.90
16814;DHT22;8524;57.650;11.926;2024-01-10T13:26:14;0.40;99.90
16814;DHT22;8524;57.650;11.926;2024-01-10T13:28:41;0.30;99.90
16814;DHT22;8524;57.650;11.926;2024-01-10T13:31:08;0.30;99.90
16814;DHT22;8524;57.650;11.926;2024-01-10T13:33:36;0.20;99.90
16814;DHT22;8524;57.650;11.926;2024-01-10T13:36:04;0.10;99.90
16814;DHT22;8524;57.650;11.926;2024-01-10T13:38:31;0.00;99.90
16814;DHT22;8524;57.650;11.926;2024-01-10T13:41:00;-0.10;99.90
16814;DHT22;8524;57.650;11.926;2024-01-10T13:43:27;-0.20;99.90
16814;DHT22;8524;57.650;11.926;2024-01-10T13:45:54;-0.20;99.90
16814;DHT22;8524;57.650;11.926;2024-01-10T13:48:21;-0.10;99.90
16814;DHT22;8524;57.650;11.926;2024-01-10T13:50:48;-0.20;99.90
16814;DHT22;8524;57.650;11.926;2024-01-10T13:53:15;-0.20;99.90
16814;DHT22;8524;57.650;11.926;2024-01-10T13:55:43;-0.20;99.90
16814;DHT22;8524;57.650;11.926;2024-01-10T13:58:11;-0.20;99.90
16814;DHT22;8524;57.650;11.926;2024-01-10T14:00:39;-0.10;99.90
16814;DHT22;8524;57.650;11.926;2024-01-10T14:03:06;-0.10;99.90
16814;DHT22;8524;57.650;11.926;2024-01-10T14:05:33;-0.10;99.90
16814;DHT22;8524;57.650;11.926;2024-01-10T14:08:01;0.00;99.90
16814;DHT22;8524;57.650;11.926;2024-01-10T14:10:28;-0.10;99.90
16814;DHT22;8524;57.650;11.926;2024-01-10T14:12:55;-0.10;99.90
16814;DHT22;8524;57.650;11.926;2024-01-10T14:15:23;-0.20;99.90
16814;DHT22;8524;57.650;11.926;2024-01-10T14:17:50;-0.30;99.90
16814;DHT22;8524;57.650;11.926;2024-01-10T14:20:17;-0.30;99.90
16814;DHT22;8524;57.650;11.926;2024-01-10T14:22:44;-0.50;99.90
16814;DHT22;8524;57.650;11.926;2024-01-10T14:25:11;-0.50;99.90
16814;DHT22;8524;57.650;11.926;2024-01-10T14:27:39;-0.50;99.90
16814;DHT22;8524;57.650;11.926;2024-01-10T14:30:07;-0.50;99.90
16814;DHT22;8524;57.650;11.926;2024-01-10T14:32:38;-0.50;99.90
16814;DHT22;8524;57.650;11.926;2024-01-10T14:35:06;-0.40;99.90
16814;DHT22;8524;57.650;11.926;2024-01-10T14:37:34;-0.50;99.90
16814;DHT22;8524;57.650;11.926;2024-01-10T14:40:02;-0.60;99.90
16814;DHT22;8524;57.650;11.926;2024-01-10T14:42:30;-0.60;99.90
16814;DHT22;8524;57.650;11.926;2024-01-10T14:44:58;-0.70;99.90
16814;DHT22;8524;57.650;11.926;2024-01-10T14:47:25;-0.60;99.90
16814;DHT22;8524;57.650;11.926;2024-01-10T14:49:54;-0.80;99.90
16814;DHT22;8524;57.650;11.926;2024-01-10T14:52:23;-0.60;99.90
16814;DHT22;8524;57.650;11.926;2024-01-10T14:54:50;-0.60;99.90
16814;DHT22;8524;57.650;11.926;2024-01-10T14:57:17;-0.70;99.90
16814;DHT22;8524;57.650;11.926;2024-01-10T14:59:44;-0.90;99.90
16814;DHT22;8524;57.650;11.926;2024-01-10T15:02:11;-1.00;99.90
16814;DHT22;8524;57.650;11.926;2024-01-10T15:04:38;-0.90;99.90
16814;DHT22;8524;57.650;11.926;2024-01-10T15:07:07;-0.90;99.90
16814;DHT22;8524;57.650;11.926;2024-01-10T15:09:34;-0.90;99.90
16814;DHT22;8524;57.650;11.926;2024-01-10T15:12:03;-1.00;99.90
16814;DHT22;8524;57.650;11.926;2024-01-10T15:14:33;-1.00;99.90
16814;DHT22;8524;57.650;11.926;2024-01-10T15:17:00;-1.00;99.90
16814;DHT22;8524;57.650;11.926;2024-01-10T15:19:29;-1.00;99.90
16814;DHT22;8524;57.650;11.926;2024-01-10T15:21:57;-0.90;99.90
16814;DHT22;8524;57.650;11.926;2024-01-10T15:24:25;-0.90;99.90
16814;DHT22;8524;57.650;11.926;2024-01-10T15:26:52;-0.90;99.90
16814;DHT22;8524;57.650;11.926;2024-01-10T15:29:21;-0.90;99.90
16814;DHT22;8524;57.650;11.926;2024-01-10T15:31:48;-0.90;99.90
16814;DHT22;8524;57.650;11.926;2024-01-10T15:34:15;-0.80;99.90
16814;DHT22;8524;57.650;11.926;2024-01-10T15:36:43;-0.90;99.90
16814;DHT22;8524;57.650;11.926;2024-01-10T15:39:10;-0.80;99.90